createdAt,value
2018-08-12T00:00:53.397Z,0.00
2018-08-12T00:01:54.023Z,0.00
2018-08-12T00:02:53.396Z,0.00
2018-08-12T00:03:53.399Z,0.00
2018-08-12T00:04:53.399Z,0.00
2018-08-12T00:05:53.399Z,0.00
2018-08-12T00:06:53.397Z,0.00
2018-08-12T00:07:53.400Z,0.00
2018-08-12T00:08:53.399Z,0.00
2018-08-12T00:09:53.399Z,0.00
2018-08-12T00:10:53.398Z,0.00
2018-08-12T00:11:53.435Z,0.00
2018-08-12T00:12:53.400Z,0.00
2018-08-12T00:13:53.399Z,0.00
2018-08-12T00:14:53.400Z,0.00
2018-08-12T00:15:53.401Z,0.00
2018-08-12T00:16:53.399Z,0.00
2018-08-12T00:17:53.398Z,0.00
2018-08-12T00:18:53.899Z,0.00
2018-08-12T00:19:53.400Z,0.00
2018-08-12T00:20:53.397Z,0.00
2018-08-12T00:21:53.497Z,0.00
2018-08-12T00:22:53.398Z,0.00
2018-08-12T00:23:53.399Z,0.00
2018-08-12T00:24:53.400Z,0.00
2018-08-12T00:25:53.414Z,0.00
2018-08-12T00:26:53.400Z,0.00
2018-08-12T00:27:53.400Z,0.00
2018-08-12T00:28:53.429Z,0.00
2018-08-12T00:29:53.400Z,0.00
2018-08-12T00:30:53.401Z,0.00
2018-08-12T00:31:53.403Z,0.00
2018-08-12T00:32:53.402Z,0.00
2018-08-12T00:33:53.400Z,0.00
2018-08-12T00:34:53.409Z,0.00
2018-08-12T00:35:53.400Z,0.00
2018-08-12T00:36:53.399Z,0.00
2018-08-12T00:37:53.411Z,0.00
2018-08-12T00:38:53.488Z,0.00
2018-08-12T00:39:53.406Z,0.00
2018-08-12T00:40:53.400Z,0.00
2018-08-12T00:41:53.401Z,0.00
2018-08-12T00:42:53.401Z,0.00
2018-08-12T00:43:53.405Z,0.00
2018-08-12T00:44:53.399Z,0.00
2018-08-12T00:45:53.403Z,0.00
2018-08-12T00:46:53.402Z,0.00
2018-08-12T00:47:53.401Z,0.00
2018-08-12T00:48:53.400Z,0.00
2018-08-12T00:49:53.400Z,0.00
2018-08-12T00:50:53.439Z,0.00
2018-08-12T00:51:53.402Z,0.00
2018-08-12T00:52:53.400Z,0.00
2018-08-12T00:53:53.400Z,0.00
2018-08-12T00:54:53.404Z,0.00
2018-08-12T00:55:53.403Z,0.00
2018-08-12T00:56:53.400Z,0.00
2018-08-12T00:57:53.409Z,0.00
2018-08-12T00:58:53.409Z,0.00
2018-08-12T00:59:53.399Z,0.00
2018-08-12T01:00:53.398Z,0.00
2018-08-12T01:01:53.399Z,0.00
2018-08-12T01:02:53.399Z,0.00
2018-08-12T01:03:53.400Z,0.00
2018-08-12T01:04:53.397Z,0.00
2018-08-12T01:05:53.400Z,0.00
2018-08-12T01:06:53.399Z,0.00
2018-08-12T01:07:53.403Z,0.00
2018-08-12T01:08:53.404Z,0.00
2018-08-12T01:09:53.400Z,0.00
2018-08-12T01:10:53.400Z,0.00
2018-08-12T01:11:53.412Z,0.00
2018-08-12T01:12:53.397Z,0.00
2018-08-12T01:13:53.395Z,0.00
2018-08-12T01:14:53.399Z,0.00
2018-08-12T01:15:53.396Z,0.00
2018-08-12T01:16:53.396Z,0.00
2018-08-12T01:17:53.395Z,0.00
2018-08-12T01:18:53.395Z,0.00
2018-08-12T01:19:53.396Z,0.00
2018-08-12T01:20:53.398Z,0.00
2018-08-12T01:21:53.393Z,0.00
2018-08-12T01:22:53.394Z,0.00
2018-08-12T01:23:53.395Z,0.00
2018-08-12T01:24:53.395Z,0.00
2018-08-12T01:25:53.482Z,0.00
2018-08-12T01:26:53.413Z,0.00
2018-08-12T01:27:53.392Z,0.00
2018-08-12T01:28:53.394Z,0.00
2018-08-12T01:29:53.390Z,0.00
2018-08-12T01:30:53.407Z,0.00
2018-08-12T01:31:53.390Z,0.00
2018-08-12T01:32:53.389Z,0.00
2018-08-12T01:33:53.393Z,0.00
2018-08-12T01:34:53.391Z,0.00
2018-08-12T01:35:53.443Z,0.00
2018-08-12T01:36:53.388Z,0.00
2018-08-12T01:37:53.388Z,0.00
2018-08-12T01:38:53.387Z,0.00
2018-08-12T01:39:53.388Z,0.00
2018-08-12T01:40:53.404Z,0.00
2018-08-12T01:41:53.386Z,0.00
2018-08-12T01:42:53.386Z,0.00
2018-08-12T01:43:53.388Z,0.00
2018-08-12T01:44:53.392Z,0.00
2018-08-12T01:45:53.386Z,0.00
2018-08-12T01:46:53.388Z,0.00
2018-08-12T01:47:53.384Z,0.00
2018-08-12T01:48:53.383Z,0.00
2018-08-12T01:49:53.383Z,0.00
2018-08-12T01:50:53.383Z,0.00
2018-08-12T01:51:53.384Z,0.00
2018-08-12T01:52:53.381Z,0.00
2018-08-12T01:53:53.384Z,0.00
2018-08-12T01:54:53.380Z,0.00
2018-08-12T01:55:53.380Z,0.00
2018-08-12T01:56:53.380Z,0.00
2018-08-12T01:57:53.381Z,0.00
2018-08-12T01:58:53.384Z,0.00
2018-08-12T01:59:53.391Z,0.00
2018-08-12T02:00:53.376Z,0.00
2018-08-12T02:01:53.415Z,0.00
2018-08-12T02:02:53.376Z,0.00
2018-08-12T02:03:53.376Z,0.00
2018-08-12T02:04:53.701Z,0.00
2018-08-12T02:05:53.373Z,0.00
2018-08-12T02:06:53.374Z,0.00
2018-08-12T02:07:53.373Z,0.00
2018-08-12T02:08:53.372Z,0.00
2018-08-12T02:09:53.371Z,0.00
2018-08-12T02:10:53.371Z,0.00
2018-08-12T02:11:53.370Z,0.00
2018-08-12T02:12:53.369Z,0.00
2018-08-12T02:13:53.369Z,0.00
2018-08-12T02:14:53.369Z,0.00
2018-08-12T02:15:53.371Z,0.00
2018-08-12T02:16:53.369Z,0.00
2018-08-12T02:17:53.366Z,0.00
2018-08-12T02:18:53.366Z,0.00
2018-08-12T02:19:53.368Z,0.00
2018-08-12T02:20:53.363Z,0.00
2018-08-12T02:21:53.364Z,0.00
2018-08-12T02:22:53.363Z,0.00
2018-08-12T02:23:53.364Z,0.00
2018-08-12T02:24:53.364Z,0.00
2018-08-12T02:25:53.361Z,0.00
2018-08-12T02:26:53.360Z,0.00
2018-08-12T02:27:53.359Z,0.00
2018-08-12T02:28:53.358Z,0.00
2018-08-12T02:29:53.358Z,0.00
2018-08-12T02:30:53.362Z,0.00
2018-08-12T02:31:53.359Z,0.00
2018-08-12T02:32:53.355Z,0.00
2018-08-12T02:33:53.358Z,0.00
2018-08-12T02:34:53.356Z,0.00
2018-08-12T02:35:54.111Z,0.00
2018-08-12T02:36:53.352Z,0.00
2018-08-12T02:37:53.353Z,0.00
2018-08-12T02:38:53.361Z,0.00
2018-08-12T02:39:53.351Z,0.00
2018-08-12T02:40:53.348Z,0.00
2018-08-12T02:41:53.357Z,0.00
2018-08-12T02:42:53.347Z,0.00
2018-08-12T02:43:53.348Z,0.00
2018-08-12T02:44:53.345Z,0.00
2018-08-12T02:45:53.345Z,0.00
2018-08-12T02:46:53.345Z,0.00
2018-08-12T02:47:53.344Z,0.00
2018-08-12T02:48:53.343Z,0.00
2018-08-12T02:49:53.342Z,0.00
2018-08-12T02:50:53.343Z,0.00
2018-08-12T02:51:53.340Z,0.00
2018-08-12T02:52:53.357Z,0.00
2018-08-12T02:53:53.339Z,0.00
2018-08-12T02:54:53.338Z,0.00
2018-08-12T02:55:53.384Z,0.00
2018-08-12T02:56:53.338Z,0.00
2018-08-12T02:57:53.336Z,0.00
2018-08-12T02:58:53.337Z,0.00
2018-08-12T02:59:53.333Z,0.00
2018-08-12T03:00:53.334Z,0.00
2018-08-12T03:01:53.332Z,0.00
2018-08-12T03:02:53.331Z,0.00
2018-08-12T03:03:53.330Z,0.00
2018-08-12T03:04:53.329Z,0.00
2018-08-12T03:05:53.329Z,0.00
2018-08-12T03:06:53.328Z,0.00
2018-08-12T03:07:53.335Z,0.00
2018-08-12T03:08:53.325Z,0.00
2018-08-12T03:09:53.334Z,0.00
2018-08-12T03:10:53.350Z,0.00
2018-08-12T03:11:53.326Z,0.00
2018-08-12T03:12:53.321Z,0.00
2018-08-12T03:13:53.320Z,0.00
2018-08-12T03:14:53.321Z,0.00
2018-08-12T03:15:53.321Z,0.00
2018-08-12T03:16:53.327Z,0.00
2018-08-12T03:17:53.317Z,0.00
2018-08-12T03:18:53.316Z,0.00
2018-08-12T03:19:53.314Z,0.00
2018-08-12T03:20:53.313Z,0.00
2018-08-12T03:21:53.316Z,0.00
2018-08-12T03:22:53.315Z,0.00
2018-08-12T03:23:53.312Z,0.00
2018-08-12T03:24:53.314Z,0.00
2018-08-12T03:25:53.309Z,0.00
2018-08-12T03:26:53.307Z,0.00
2018-08-12T03:27:53.309Z,0.00
2018-08-12T03:28:53.304Z,0.00
2018-08-12T03:29:53.310Z,0.00
2018-08-12T03:30:53.304Z,0.00
2018-08-12T03:31:53.306Z,0.00
2018-08-12T03:32:53.302Z,0.00
2018-08-12T03:33:53.299Z,0.00
2018-08-12T03:34:53.304Z,0.00
2018-08-12T03:35:53.318Z,0.00
2018-08-12T03:36:53.296Z,0.00
2018-08-12T03:37:53.297Z,0.00
2018-08-12T03:38:53.294Z,0.00
2018-08-12T03:39:53.313Z,0.00
2018-08-12T03:40:53.295Z,0.00
2018-08-12T03:41:53.293Z,0.00
2018-08-12T03:42:53.290Z,0.00
2018-08-12T03:43:53.290Z,0.00
2018-08-12T03:44:53.288Z,0.00
2018-08-12T03:45:53.287Z,0.00
2018-08-12T03:46:53.286Z,0.00
2018-08-12T03:47:53.290Z,0.00
2018-08-12T03:48:53.322Z,0.00
2018-08-12T03:49:53.282Z,0.00
2018-08-12T03:50:53.283Z,0.00
2018-08-12T03:51:53.281Z,0.00
2018-08-12T03:52:53.279Z,0.00
2018-08-12T03:53:53.280Z,0.00
2018-08-12T03:54:53.277Z,0.00
2018-08-12T03:55:53.278Z,0.00
2018-08-12T03:56:53.275Z,0.00
2018-08-12T03:57:53.277Z,0.00
2018-08-12T03:58:53.273Z,0.00
2018-08-12T03:59:53.272Z,0.00
2018-08-12T04:00:53.290Z,0.00
2018-08-12T04:01:53.269Z,5.63
2018-08-12T04:02:53.271Z,5.63
2018-08-12T04:03:53.272Z,5.63
2018-08-12T04:04:53.265Z,5.63
2018-08-12T04:05:53.265Z,5.63
2018-08-12T04:06:53.264Z,5.63
2018-08-12T04:07:53.344Z,5.63
2018-08-12T04:08:53.261Z,5.63
2018-08-12T04:09:53.259Z,5.63
2018-08-12T04:10:53.262Z,5.63
2018-08-12T04:11:53.257Z,5.63
2018-08-12T04:12:53.255Z,5.63
2018-08-12T04:13:53.255Z,11.25
2018-08-12T04:14:53.254Z,11.25
2018-08-12T04:15:53.253Z,11.25
2018-08-12T04:16:53.249Z,11.25
2018-08-12T04:17:53.250Z,11.25
2018-08-12T04:18:53.279Z,11.25
2018-08-12T04:19:53.247Z,11.25
2018-08-12T04:20:53.244Z,11.25
2018-08-12T04:21:53.244Z,11.25
2018-08-12T04:22:53.243Z,11.25
2018-08-12T04:23:53.243Z,11.25
2018-08-12T04:24:53.241Z,11.25
2018-08-12T04:25:53.239Z,16.88
2018-08-12T04:26:53.237Z,16.88
2018-08-12T04:27:53.236Z,16.88
2018-08-12T04:28:53.238Z,16.88
2018-08-12T04:29:53.264Z,16.88
2018-08-12T04:30:53.233Z,22.50
2018-08-12T04:31:53.234Z,22.50
2018-08-12T04:32:53.229Z,16.88
2018-08-12T04:33:53.232Z,22.50
2018-08-12T04:34:53.230Z,22.50
2018-08-12T04:35:53.227Z,28.13
2018-08-12T04:36:53.224Z,22.50
2018-08-12T04:37:53.236Z,28.13
2018-08-12T04:38:53.765Z,33.75
2018-08-12T04:39:53.222Z,39.38
2018-08-12T04:40:53.221Z,39.38
2018-08-12T04:41:53.219Z,45.00
2018-08-12T04:42:53.217Z,61.88
2018-08-12T04:43:53.215Z,112.50
2018-08-12T04:44:53.219Z,135.00
2018-08-12T04:45:53.238Z,106.88
2018-08-12T04:46:53.216Z,67.50
2018-08-12T04:47:53.212Z,67.50
2018-08-12T04:48:53.209Z,73.13
2018-08-12T04:49:53.209Z,84.38
2018-08-12T04:50:53.210Z,112.50
2018-08-12T04:51:53.205Z,135.00
2018-08-12T04:52:53.205Z,151.88
2018-08-12T04:53:53.203Z,180.00
2018-08-12T04:54:53.204Z,225.00
2018-08-12T04:55:53.202Z,225.00
2018-08-12T04:56:53.200Z,112.50
2018-08-12T04:57:53.202Z,95.63
2018-08-12T04:58:53.200Z,106.88
2018-08-12T04:59:53.200Z,112.50
2018-08-12T05:00:53.198Z,123.75
2018-08-12T05:01:53.198Z,129.38
2018-08-12T05:02:53.198Z,106.88
2018-08-12T05:03:53.201Z,101.25
2018-08-12T05:04:53.195Z,101.25
2018-08-12T05:05:53.194Z,106.88
2018-08-12T05:06:53.201Z,118.13
2018-08-12T05:07:53.195Z,123.75
2018-08-12T05:08:53.195Z,129.38
2018-08-12T05:09:54.151Z,129.38
2018-08-12T05:10:53.195Z,78.75
2018-08-12T05:11:53.194Z,135.00
2018-08-12T05:12:53.190Z,135.00
2018-08-12T05:13:53.191Z,140.63
2018-08-12T05:14:53.192Z,146.25
2018-08-12T05:15:53.189Z,140.63
2018-08-12T05:16:53.189Z,135.00
2018-08-12T05:17:53.191Z,123.75
2018-08-12T05:18:53.189Z,112.50
2018-08-12T05:19:53.189Z,118.13
2018-08-12T05:20:53.188Z,129.38
2018-08-12T05:21:53.189Z,151.88
2018-08-12T05:22:53.188Z,163.13
2018-08-12T05:23:53.187Z,180.00
2018-08-12T05:24:53.188Z,185.63
2018-08-12T05:25:53.186Z,191.25
2018-08-12T05:26:53.184Z,185.63
2018-08-12T05:27:53.184Z,174.38
2018-08-12T05:28:53.184Z,174.38
2018-08-12T05:29:53.187Z,225.00
2018-08-12T05:30:53.186Z,382.50
2018-08-12T05:31:53.185Z,393.75
2018-08-12T05:32:53.182Z,331.88
2018-08-12T05:33:53.186Z,360.00
2018-08-12T05:34:53.185Z,298.13
2018-08-12T05:35:53.185Z,298.13
2018-08-12T05:36:53.185Z,624.38
2018-08-12T05:37:53.183Z,810.00
2018-08-12T05:38:53.183Z,618.75
2018-08-12T05:39:53.183Z,365.63
2018-08-12T05:40:53.188Z,264.38
2018-08-12T05:41:53.185Z,208.13
2018-08-12T05:42:53.186Z,331.88
2018-08-12T05:43:53.188Z,433.13
2018-08-12T05:44:53.192Z,455.63
2018-08-12T05:45:53.188Z,466.88
2018-08-12T05:46:53.192Z,495.00
2018-08-12T05:47:53.192Z,450.00
2018-08-12T05:48:53.193Z,286.88
2018-08-12T05:49:53.192Z,365.63
2018-08-12T05:50:53.199Z,337.50
2018-08-12T05:51:53.198Z,253.13
2018-08-12T05:52:53.195Z,225.00
2018-08-12T05:53:53.197Z,230.63
2018-08-12T05:54:53.201Z,213.75
2018-08-12T05:55:53.200Z,213.75
2018-08-12T05:56:53.203Z,213.75
2018-08-12T05:57:53.204Z,213.75
2018-08-12T05:58:53.206Z,196.88
2018-08-12T05:59:53.204Z,196.88
2018-08-12T06:00:53.206Z,196.88
2018-08-12T06:01:53.206Z,202.50
2018-08-12T06:02:53.278Z,202.50
2018-08-12T06:03:53.208Z,202.50
2018-08-12T06:04:53.209Z,196.88
2018-08-12T06:05:53.210Z,202.50
2018-08-12T06:06:53.211Z,202.50
2018-08-12T06:07:53.216Z,208.13
2018-08-12T06:08:53.234Z,202.50
2018-08-12T06:09:53.213Z,180.00
2018-08-12T06:10:53.214Z,202.50
2018-08-12T06:11:53.215Z,202.50
2018-08-12T06:12:53.217Z,196.88
2018-08-12T06:13:53.217Z,196.88
2018-08-12T06:14:53.219Z,191.25
2018-08-12T06:15:53.221Z,168.75
2018-08-12T06:16:53.219Z,180.00
2018-08-12T06:17:53.219Z,168.75
2018-08-12T06:18:53.221Z,168.75
2018-08-12T06:19:53.222Z,163.13
2018-08-12T06:20:53.222Z,163.13
2018-08-12T06:21:53.226Z,157.50
2018-08-12T06:22:53.225Z,151.88
2018-08-12T06:23:53.224Z,151.88
2018-08-12T06:24:53.227Z,146.25
2018-08-12T06:25:53.226Z,140.63
2018-08-12T06:26:53.227Z,140.63
2018-08-12T06:27:53.227Z,140.63
2018-08-12T06:28:53.230Z,135.00
2018-08-12T06:29:53.228Z,135.00
2018-08-12T06:30:53.229Z,129.38
2018-08-12T06:31:53.238Z,118.13
2018-08-12T06:32:53.233Z,123.75
2018-08-12T06:33:53.231Z,118.13
2018-08-12T06:34:53.232Z,106.88
2018-08-12T06:35:53.233Z,101.25
2018-08-12T06:36:53.233Z,95.63
2018-08-12T06:37:53.233Z,95.63
2018-08-12T06:38:53.245Z,90.00
2018-08-12T06:39:53.252Z,90.00
2018-08-12T06:40:53.261Z,84.38
2018-08-12T06:41:53.360Z,84.38
2018-08-12T06:42:53.237Z,78.75
2018-08-12T06:43:53.238Z,78.75
2018-08-12T06:44:53.238Z,78.75
2018-08-12T06:45:53.240Z,73.13
2018-08-12T06:46:53.239Z,73.13
2018-08-12T06:47:53.240Z,73.13
2018-08-12T06:48:53.256Z,73.13
2018-08-12T06:49:53.241Z,67.50
2018-08-12T06:50:53.243Z,67.50
2018-08-12T06:51:53.272Z,67.50
2018-08-12T06:52:53.243Z,67.50
2018-08-12T06:53:53.243Z,67.50
2018-08-12T06:54:53.244Z,67.50
2018-08-12T06:55:53.245Z,67.50
2018-08-12T06:56:53.248Z,67.50
2018-08-12T06:57:53.245Z,61.88
2018-08-12T06:58:53.246Z,61.88
2018-08-12T06:59:53.249Z,61.88
2018-08-12T07:00:53.248Z,61.88
2018-08-12T07:01:53.248Z,61.88
2018-08-12T07:02:53.251Z,61.88
2018-08-12T07:03:53.249Z,61.88
2018-08-12T07:04:53.252Z,61.88
2018-08-12T07:05:53.258Z,61.88
2018-08-12T07:06:53.252Z,61.88
2018-08-12T07:07:53.251Z,61.88
2018-08-12T07:08:53.252Z,61.88
2018-08-12T07:09:53.254Z,61.88
2018-08-12T07:10:53.253Z,61.88
2018-08-12T07:11:53.256Z,61.88
2018-08-12T07:12:53.780Z,61.88
2018-08-12T07:13:53.255Z,61.88
2018-08-12T07:14:53.256Z,61.88
2018-08-12T07:15:53.258Z,61.88
2018-08-12T07:16:53.255Z,61.88
2018-08-12T07:17:53.257Z,61.88
2018-08-12T07:18:53.258Z,61.88
2018-08-12T07:19:53.261Z,61.88
2018-08-12T07:20:53.257Z,61.88
2018-08-12T07:21:53.259Z,61.88
2018-08-12T07:22:53.260Z,61.88
2018-08-12T07:23:53.260Z,61.88
2018-08-12T07:24:53.261Z,61.88
2018-08-12T07:25:53.262Z,61.88
2018-08-12T07:26:53.262Z,61.88
2018-08-12T07:27:53.266Z,61.88
2018-08-12T07:28:53.270Z,61.88
2018-08-12T07:29:53.269Z,61.88
2018-08-12T07:30:53.267Z,61.88
2018-08-12T07:31:53.267Z,61.88
2018-08-12T07:32:53.302Z,61.88
2018-08-12T07:33:53.268Z,61.88
2018-08-12T07:34:53.270Z,61.88
2018-08-12T07:35:53.274Z,61.88
2018-08-12T07:36:53.274Z,61.88
2018-08-12T07:37:53.271Z,61.88
2018-08-12T07:38:53.281Z,61.88
2018-08-12T07:39:53.274Z,61.88
2018-08-12T07:40:53.273Z,61.88
2018-08-12T07:41:53.276Z,61.88
2018-08-12T07:42:53.275Z,61.88
2018-08-12T07:43:54.164Z,61.88
2018-08-12T07:44:53.277Z,61.88
2018-08-12T07:45:53.286Z,61.88
2018-08-12T07:46:53.282Z,61.88
2018-08-12T07:47:53.280Z,61.88
2018-08-12T07:48:53.365Z,61.88
2018-08-12T07:49:53.283Z,61.88
2018-08-12T07:50:53.283Z,61.88
2018-08-12T07:51:53.286Z,61.88
2018-08-12T07:52:53.289Z,61.88
2018-08-12T07:53:53.290Z,61.88
2018-08-12T07:54:53.289Z,61.88
2018-08-12T07:55:53.348Z,61.88
2018-08-12T07:56:53.292Z,61.88
2018-08-12T07:57:53.290Z,61.88
2018-08-12T07:58:53.291Z,61.88
2018-08-12T07:59:53.293Z,67.50
2018-08-12T08:00:53.293Z,67.50
2018-08-12T08:01:53.296Z,67.50
2018-08-12T08:02:53.298Z,67.50
2018-08-12T08:03:53.301Z,67.50
2018-08-12T08:04:53.300Z,67.50
2018-08-12T08:05:53.300Z,73.13
2018-08-12T08:06:53.304Z,73.13
2018-08-12T08:07:53.306Z,73.13
2018-08-12T08:08:53.304Z,73.13
2018-08-12T08:09:53.305Z,73.13
2018-08-12T08:10:53.307Z,73.13
2018-08-12T08:11:53.310Z,78.75
2018-08-12T08:12:53.309Z,78.75
2018-08-12T08:13:53.312Z,78.75
2018-08-12T08:14:53.314Z,84.38
2018-08-12T08:15:53.318Z,84.38
2018-08-12T08:16:53.316Z,90.00
2018-08-12T08:17:53.318Z,90.00
2018-08-12T08:18:53.319Z,90.00
2018-08-12T08:19:53.347Z,90.00
2018-08-12T08:20:53.322Z,90.00
2018-08-12T08:21:53.323Z,90.00
2018-08-12T08:22:53.331Z,90.00
2018-08-12T08:23:53.328Z,84.38
2018-08-12T08:24:53.329Z,90.00
2018-08-12T08:25:53.409Z,90.00
2018-08-12T08:26:53.332Z,90.00
2018-08-12T08:27:53.334Z,90.00
2018-08-12T08:28:53.336Z,95.63
2018-08-12T08:29:53.338Z,95.63
2018-08-12T08:30:53.339Z,95.63
2018-08-12T08:31:53.546Z,95.63
2018-08-12T08:32:53.343Z,95.63
2018-08-12T08:33:53.346Z,95.63
2018-08-12T08:34:53.348Z,101.25
2018-08-12T08:35:53.351Z,106.88
2018-08-12T08:36:53.354Z,106.88
2018-08-12T08:37:53.358Z,112.50
2018-08-12T08:38:53.360Z,118.13
2018-08-12T08:39:53.361Z,123.75
2018-08-12T08:40:53.361Z,129.38
2018-08-12T08:41:53.362Z,135.00
2018-08-12T08:42:53.366Z,140.63
2018-08-12T08:43:53.429Z,140.63
2018-08-12T08:44:53.372Z,146.25
2018-08-12T08:45:53.372Z,151.88
2018-08-12T08:46:53.379Z,151.88
2018-08-12T08:47:53.380Z,151.88
2018-08-12T08:48:53.380Z,157.50
2018-08-12T08:49:53.441Z,157.50
2018-08-12T08:50:53.386Z,157.50
2018-08-12T08:51:53.392Z,157.50
2018-08-12T08:52:53.391Z,151.88
2018-08-12T08:53:53.395Z,157.50
2018-08-12T08:54:53.397Z,168.75
2018-08-12T08:55:53.455Z,174.38
2018-08-12T08:56:53.401Z,185.63
2018-08-12T08:57:53.411Z,298.13
2018-08-12T08:58:53.409Z,450.00
2018-08-12T08:59:53.416Z,500.63
2018-08-12T09:00:53.416Z,652.50
2018-08-12T09:01:53.417Z,826.88
2018-08-12T09:02:53.424Z,860.63
2018-08-12T09:03:53.425Z,866.25
2018-08-12T09:04:53.428Z,877.50
2018-08-12T09:05:53.434Z,866.25
2018-08-12T09:06:53.440Z,877.50
2018-08-12T09:07:53.501Z,826.88
2018-08-12T09:08:53.606Z,810.00
2018-08-12T09:09:53.453Z,871.88
2018-08-12T09:10:53.455Z,883.13
2018-08-12T09:11:53.461Z,956.25
2018-08-12T09:12:53.466Z,956.25
2018-08-12T09:13:53.472Z,984.38
2018-08-12T09:14:53.477Z,1051.88
2018-08-12T09:15:53.484Z,1068.75
2018-08-12T09:16:53.489Z,1057.50
2018-08-12T09:17:53.494Z,1029.38
2018-08-12T09:18:53.503Z,1006.88
2018-08-12T09:19:53.509Z,990.00
2018-08-12T09:20:53.528Z,967.50
2018-08-12T09:21:53.523Z,922.50
2018-08-12T09:22:53.528Z,905.63
2018-08-12T09:23:53.544Z,945.00
2018-08-12T09:24:53.543Z,933.75
2018-08-12T09:25:53.548Z,804.38
2018-08-12T09:26:53.556Z,562.50
2018-08-12T09:27:53.568Z,365.63
2018-08-12T09:28:53.581Z,241.88
2018-08-12T09:29:53.585Z,213.75
2018-08-12T09:30:53.587Z,202.50
2018-08-12T09:31:53.593Z,202.50
2018-08-12T09:32:53.599Z,191.25
2018-08-12T09:33:53.608Z,185.63
2018-08-12T09:34:53.637Z,180.00
2018-08-12T09:35:53.621Z,180.00
2018-08-12T09:36:53.628Z,180.00
2018-08-12T09:37:53.634Z,185.63
2018-08-12T09:38:53.642Z,185.63
2018-08-12T09:39:53.648Z,185.63
2018-08-12T09:40:53.655Z,185.63
2018-08-12T09:41:53.661Z,185.63
2018-08-12T09:42:53.669Z,185.63
2018-08-12T09:43:53.675Z,185.63
2018-08-12T09:44:53.679Z,180.00
2018-08-12T09:45:55.607Z,180.00
2018-08-12T09:46:53.770Z,174.38
2018-08-12T09:47:53.698Z,168.75
2018-08-12T09:48:53.704Z,163.13
2018-08-12T09:49:53.710Z,163.13
2018-08-12T09:50:53.714Z,157.50
2018-08-12T09:51:53.800Z,157.50
2018-08-12T09:52:53.725Z,157.50
2018-08-12T09:53:53.738Z,146.25
2018-08-12T09:54:53.737Z,151.88
2018-08-12T09:55:53.743Z,151.88
2018-08-12T09:56:53.746Z,151.88
2018-08-12T09:57:53.752Z,151.88
2018-08-12T09:58:53.760Z,151.88
2018-08-12T09:59:53.774Z,151.88
2018-08-12T10:00:53.778Z,146.25
2018-08-12T10:01:53.774Z,146.25
2018-08-12T10:02:53.780Z,146.25
2018-08-12T10:03:53.785Z,146.25
2018-08-12T10:04:53.789Z,140.63
2018-08-12T10:05:53.796Z,129.38
2018-08-12T10:06:53.799Z,129.38
2018-08-12T10:07:53.806Z,135.00
2018-08-12T10:08:53.809Z,129.38
2018-08-12T10:09:53.820Z,129.38
2018-08-12T10:10:53.824Z,129.38
2018-08-12T10:11:53.825Z,135.00
2018-08-12T10:12:53.832Z,135.00
2018-08-12T10:13:53.867Z,140.63
2018-08-12T10:14:53.839Z,146.25
2018-08-12T10:15:53.845Z,146.25
2018-08-12T10:16:53.849Z,146.25
2018-08-12T10:17:54.171Z,129.38
2018-08-12T10:18:53.859Z,129.38
2018-08-12T10:19:53.864Z,123.75
2018-08-12T10:20:53.867Z,112.50
2018-08-12T10:21:53.874Z,106.88
2018-08-12T10:22:53.889Z,112.50
2018-08-12T10:23:53.882Z,112.50
2018-08-12T10:24:53.887Z,106.88
2018-08-12T10:25:53.894Z,106.88
2018-08-12T10:26:53.905Z,106.88
2018-08-12T10:27:53.903Z,106.88
2018-08-12T10:28:53.925Z,106.88
2018-08-12T10:29:53.912Z,106.88
2018-08-12T10:30:53.922Z,106.88
2018-08-12T10:31:53.937Z,106.88
2018-08-12T10:32:53.927Z,106.88
2018-08-12T10:33:53.928Z,106.88
2018-08-12T10:34:53.934Z,112.50
2018-08-12T10:35:53.939Z,523.13
2018-08-12T10:36:53.942Z,1636.88
2018-08-12T10:37:53.947Z,2283.75
2018-08-12T10:38:53.952Z,2295.00
2018-08-12T10:39:53.958Z,2300.63
2018-08-12T10:40:53.963Z,2323.13
2018-08-12T10:41:53.970Z,2328.75
2018-08-12T10:42:53.977Z,2328.75
2018-08-12T10:43:54.032Z,2340.00
2018-08-12T10:44:53.987Z,2356.88
2018-08-12T10:45:53.994Z,2345.63
2018-08-12T10:46:54.003Z,2328.75
2018-08-12T10:47:54.009Z,2323.13
2018-08-12T10:48:54.615Z,2295.00
2018-08-12T10:49:54.025Z,2278.13
2018-08-12T10:50:54.084Z,2266.88
2018-08-12T10:51:54.046Z,2300.63
2018-08-12T10:52:54.054Z,2300.63
2018-08-12T10:53:54.064Z,2328.75
2018-08-12T10:54:54.075Z,2345.63
2018-08-12T10:55:54.086Z,2373.75
2018-08-12T10:56:54.097Z,2413.13
2018-08-12T10:57:54.113Z,2424.38
2018-08-12T10:58:54.121Z,2424.38
2018-08-12T10:59:54.133Z,2441.25
2018-08-12T11:00:54.147Z,2424.38
2018-08-12T11:01:54.159Z,2430.00
2018-08-12T11:02:54.180Z,2441.25
2018-08-12T11:03:54.187Z,2435.63
2018-08-12T11:04:54.197Z,2424.38
2018-08-12T11:05:54.217Z,2435.63
2018-08-12T11:06:54.225Z,2441.25
2018-08-12T11:07:54.244Z,2446.88
2018-08-12T11:08:54.263Z,2452.50
2018-08-12T11:09:54.269Z,2452.50
2018-08-12T11:10:54.283Z,2463.75
2018-08-12T11:11:54.300Z,2486.25
2018-08-12T11:12:54.316Z,2469.38
2018-08-12T11:13:54.333Z,2323.13
2018-08-12T11:14:54.344Z,2008.13
2018-08-12T11:15:54.426Z,1631.25
2018-08-12T11:16:54.373Z,1231.88
2018-08-12T11:17:54.391Z,815.63
2018-08-12T11:18:54.409Z,466.88
2018-08-12T11:19:55.026Z,213.75
2018-08-12T11:20:54.437Z,112.50
2018-08-12T11:21:54.452Z,112.50
2018-08-12T11:22:54.470Z,106.88
2018-08-12T11:23:54.506Z,106.88
2018-08-12T11:24:54.496Z,106.88
2018-08-12T11:25:54.521Z,106.88
2018-08-12T11:26:54.524Z,112.50
2018-08-12T11:27:54.542Z,112.50
2018-08-12T11:28:54.577Z,112.50
2018-08-12T11:29:54.563Z,112.50
2018-08-12T11:30:54.571Z,106.88
2018-08-12T11:31:54.585Z,106.88
2018-08-12T11:32:54.594Z,112.50
2018-08-12T11:33:54.605Z,118.13
2018-08-12T11:34:54.725Z,112.50
2018-08-12T11:35:54.630Z,112.50
2018-08-12T11:36:54.634Z,112.50
2018-08-12T11:37:54.643Z,112.50
2018-08-12T11:38:54.903Z,112.50
2018-08-12T11:39:54.686Z,118.13
2018-08-12T11:40:54.670Z,118.13
2018-08-12T11:41:54.692Z,118.13
2018-08-12T11:42:54.693Z,118.13
2018-08-12T11:43:54.759Z,118.13
2018-08-12T11:44:54.705Z,118.13
2018-08-12T11:45:54.716Z,118.13
2018-08-12T11:46:54.725Z,118.13
2018-08-12T11:47:54.729Z,118.13
2018-08-12T11:48:54.737Z,118.13
2018-08-12T11:49:54.746Z,118.13
2018-08-12T11:50:55.479Z,118.13
2018-08-12T11:51:54.761Z,118.13
2018-08-12T11:52:54.767Z,123.75
2018-08-12T11:53:54.787Z,123.75
2018-08-12T11:54:54.783Z,123.75
2018-08-12T11:55:54.793Z,123.75
2018-08-12T11:56:54.843Z,129.38
2018-08-12T11:57:54.818Z,129.38
2018-08-12T11:58:54.813Z,129.38
2018-08-12T11:59:54.819Z,135.00
2018-08-12T12:00:54.825Z,135.00
2018-08-12T12:01:54.840Z,135.00
2018-08-12T12:02:54.845Z,135.00
2018-08-12T12:03:54.846Z,135.00
2018-08-12T12:04:54.860Z,135.00
2018-08-12T12:05:54.885Z,135.00
2018-08-12T12:06:54.875Z,135.00
2018-08-12T12:07:54.875Z,135.00
2018-08-12T12:08:54.928Z,135.00
2018-08-12T12:09:54.893Z,135.00
2018-08-12T12:10:54.897Z,135.00
2018-08-12T12:11:54.901Z,135.00
2018-08-12T12:12:54.920Z,129.38
2018-08-12T12:13:54.916Z,129.38
2018-08-12T12:14:54.922Z,129.38
2018-08-12T12:15:54.956Z,129.38
2018-08-12T12:16:54.943Z,129.38
2018-08-12T12:17:54.940Z,129.38
2018-08-12T12:18:54.965Z,129.38
2018-08-12T12:19:54.953Z,129.38
2018-08-12T12:20:54.958Z,129.38
2018-08-12T12:21:55.829Z,129.38
2018-08-12T12:22:55.067Z,129.38
2018-08-12T12:23:54.980Z,129.38
2018-08-12T12:24:54.983Z,135.00
2018-08-12T12:25:54.994Z,135.00
2018-08-12T12:26:54.998Z,135.00
2018-08-12T12:27:55.003Z,135.00
2018-08-12T12:28:55.013Z,135.00
2018-08-12T12:29:55.020Z,135.00
2018-08-12T12:30:55.022Z,135.00
2018-08-12T12:31:55.054Z,135.00
2018-08-12T12:32:55.033Z,135.00
2018-08-12T12:33:55.041Z,135.00
2018-08-12T12:34:55.052Z,135.00
2018-08-12T12:35:55.052Z,135.00
2018-08-12T12:36:55.059Z,135.00
2018-08-12T12:37:55.100Z,135.00
2018-08-12T12:38:55.072Z,135.00
2018-08-12T12:39:55.077Z,135.00
2018-08-12T12:40:55.082Z,129.38
2018-08-12T12:41:55.090Z,129.38
2018-08-12T12:42:55.130Z,129.38
2018-08-12T12:43:55.102Z,135.00
2018-08-12T12:44:55.107Z,135.00
2018-08-12T12:45:55.113Z,135.00
2018-08-12T12:46:55.122Z,135.00
2018-08-12T12:47:55.126Z,140.63